Time;durP1;ratioP1;P1;durP2;ratioP2;P2;SDS_P1;SDS_P2;PMS_P1;PMS_P2;Temp;Humidity;BMP_temperature;BMP_pressure;BME280_temperature;BME280_humidity;BME280_pressure;Samples;Min_cycle;Max_cycle;Signal;HPM_P1;HPM_P2
2021/12/08 00:00:52;;;;;;;32.72;18.90;;;0.30;93.10;;;;;;5061378;28;20040;-64
2021/12/08 00:03:19;;;;;;;32.67;19.85;;;0.30;93.10;;;;;;5057121;28;20067;-64
2021/12/08 00:05:45;;;;;;;39.70;21.25;;;0.30;93.30;;;;;;5062210;28;20063;-63
2021/12/08 00:08:14;;;;;;;37.58;20.48;;;0.30;93.20;;;;;;5062911;28;20036;-65
2021/12/08 00:13:19;;;;;;;35.13;20.70;;;0.20;93.40;;;;;;5059579;28;20047;-65
2021/12/08 00:15:50;;;;;;;38.85;21.98;;;0.30;93.60;;;;;;5060964;28;20104;-64
2021/12/08 00:18:19;;;;;;;41.60;22.73;;;0.20;93.40;;;;;;5056027;28;20791;-63
2021/12/08 00:20:46;;;;;;;38.65;21.60;;;0.30;93.40;;;;;;5057604;28;20016;-64
2021/12/08 00:23:13;;;;;;;39.63;22.15;;;0.30;93.20;;;;;;5054601;28;20039;-65
2021/12/08 00:25:39;;;;;;;39.25;21.40;;;0.30;93.10;;;;;;5057291;28;20029;-64
2021/12/08 00:28:06;;;;;;;41.28;22.05;;;0.10;93.20;;;;;;5053831;28;20025;-65
2021/12/08 00:30:33;;;;;;;35.60;20.50;;;0.00;93.50;;;;;;5057517;28;20120;-64
2021/12/08 00:32:59;;;;;;;40.50;22.48;;;0.00;93.50;;;;;;5057756;28;20483;-63
2021/12/08 00:35:27;;;;;;;38.05;21.17;;;0.10;93.30;;;;;;5040280;28;20036;-64
2021/12/08 00:37:54;;;;;;;38.20;21.60;;;0.20;93.10;;;;;;5058259;28;20036;-64
2021/12/08 00:40:20;;;;;;;37.28;22.85;;;0.20;93.10;;;;;;5061521;28;20616;-64
2021/12/08 00:42:47;;;;;;;43.28;23.92;;;0.20;93.20;;;;;;5062658;28;20058;-64
2021/12/08 00:45:15;;;;;;;46.08;25.02;;;0.20;93.30;;;;;;5059332;28;20120;-65
2021/12/08 00:47:41;;;;;;;36.13;20.33;;;0.20;93.30;;;;;;5060026;28;20035;-64
2021/12/08 00:50:09;;;;;;;41.60;21.77;;;0.20;93.50;;;;;;5060415;28;20040;-65
2021/12/08 00:52:35;;;;;;;39.72;21.77;;;0.20;93.40;;;;;;5058963;28;20237;-64
2021/12/08 00:55:02;;;;;;;37.95;20.80;;;0.20;92.90;;;;;;5062477;28;20025;-65
2021/12/08 00:57:27;;;;;;;36.17;19.75;;;0.20;92.50;;;;;;5056914;28;20052;-65
2021/12/08 00:59:53;;;;;;;37.65;20.65;;;0.20;92.30;;;;;;5058584;28;22235;-64
2021/12/08 01:02:19;;;;;;;35.22;20.20;;;0.10;92.00;;;;;;5058659;28;20025;-64
2021/12/08 01:04:45;;;;;;;39.83;21.65;;;0.00;92.40;;;;;;5057368;28;20020;-65
2021/12/08 01:07:11;;;;;;;40.45;20.73;;;0.00;93.00;;;;;;5060920;28;20490;-65
2021/12/08 01:09:37;;;;;;;33.75;18.58;;;0.20;93.50;;;;;;5056974;28;20526;-65
2021/12/08 01:12:04;;;;;;;30.63;16.55;;;0.20;93.20;;;;;;5056140;28;20036;-65
2021/12/08 01:14:32;;;;;;;27.63;16.88;;;0.20;91.90;;;;;;5057853;28;20025;-65
2021/12/08 01:16:58;;;;;;;26.08;14.85;;;0.10;91.60;;;;;;5056453;28;20021;-64
2021/12/08 01:19:25;;;;;;;25.40;14.07;;;0.00;91.60;;;;;;5061236;28;20657;-66
2021/12/08 01:21:51;;;;;;;25.20;14.45;;;-0.10;91.80;;;;;;5056889;28;20032;-65
2021/12/08 01:24:17;;;;;;;24.80;14.20;;;-0.30;91.70;;;;;;5063474;28;20033;-65
2021/12/08 01:26:43;;;;;;;23.88;13.68;;;-0.30;91.70;;;;;;5055965;28;20454;-65
2021/12/08 01:29:09;;;;;;;25.00;13.55;;;-0.30;91.60;;;;;;5059040;28;20039;-64
2021/12/08 01:31:39;;;;;;;23.25;13.25;;;-0.40;91.50;;;;;;5054084;28;20035;-65
2021/12/08 01:34:05;;;;;;;25.45;15.30;;;-0.50;91.50;;;;;;5062363;28;20028;-65
2021/12/08 01:36:31;;;;;;;28.67;15.30;;;-0.50;91.70;;;;;;5057775;28;20032;-65
2021/12/08 01:38:57;;;;;;;24.95;13.93;;;-0.50;92.10;;;;;;5063018;28;20040;-65
2021/12/08 01:41:24;;;;;;;21.60;12.98;;;-0.50;92.10;;;;;;5058892;28;20055;-65
2021/12/08 01:46:34;;;;;;;22.08;13.02;;;-0.50;92.10;;;;;;5062704;28;20101;-66
2021/12/08 01:49:01;;;;;;;20.80;11.80;;;-0.60;92.20;;;;;;5061786;28;20458;-65
2021/12/08 01:51:27;;;;;;;25.13;13.50;;;-0.50;92.30;;;;;;5058359;28;20632;-65
2021/12/08 01:53:55;;;;;;;21.52;13.55;;;-0.60;92.00;;;;;;5065864;28;20047;-66
2021/12/08 01:56:23;;;;;;;29.55;16.13;;;-0.60;92.00;;;;;;5058097;28;20029;-66
2021/12/08 01:58:49;;;;;;;27.88;15.27;;;-0.70;92.40;;;;;;5060437;28;20052;-65
2021/12/08 02:01:18;;;;;;;18.13;11.10;;;-0.60;92.60;;;;;;5046583;28;20079;-66
2021/12/08 02:03:44;;;;;;;15.90;9.57;;;-0.60;91.60;;;;;;5063316;28;20050;-66
2021/12/08 02:06:14;;;;;;;20.42;11.48;;;-0.70;90.90;;;;;;5060719;28;20079;-65
2021/12/08 02:08:41;;;;;;;23.48;13.98;;;-0.80;91.20;;;;;;5059902;28;20060;-66
2021/12/08 02:11:07;;;;;;;24.88;13.63;;;-0.80;91.40;;;;;;5044811;28;20037;-65
2021/12/08 02:13:39;;;;;;;26.80;14.95;;;-0.90;91.80;;;;;;5064272;28;20036;-65
2021/12/08 02:16:08;;;;;;;27.20;14.77;;;-0.90;91.80;;;;;;5056286;28;20020;-65
2021/12/08 02:18:35;;;;;;;26.30;14.38;;;-0.90;92.00;;;;;;5063611;28;20035;-65
2021/12/08 02:21:05;;;;;;;21.30;11.27;;;-0.90;92.00;;;;;;5061800;28;20490;-65
2021/12/08 02:23:31;;;;;;;21.60;12.02;;;-0.90;91.80;;;;;;5065236;28;20139;-65
2021/12/08 02:25:58;;;;;;;27.75;14.60;;;-1.00;91.80;;;;;;5063867;28;20772;-66
2021/12/08 02:28:24;;;;;;;33.35;17.67;;;-1.00;92.20;;;;;;5059496;28;20044;-65
2021/12/08 02:30:56;;;;;;;32.95;17.33;;;-0.90;92.30;;;;;;5060860;28;20029;-65
2021/12/08 02:47:30;;;;;;;17.70;9.65;;;-1.10;90.80;;;;;;5061004;28;20460;-66
2021/12/08 02:49:57;;;;;;;31.75;14.27;;;-1.20;91.10;;;;;;5060689;28;20074;-66
2021/12/08 02:52:23;;;;;;;38.33;18.58;;;-1.10;91.40;;;;;;5062097;28;20040;-66
2021/12/08 02:55:04;;;;;;;37.22;19.02;;;-1.00;91.80;;;;;;5063960;28;20025;-66
2021/12/08 02:57:30;;;;;;;35.00;17.52;;;-0.90;92.10;;;;;;5056674;28;20025;-66
2021/12/08 02:59:56;;;;;;;39.20;17.98;;;-0.80;92.50;;;;;;5063445;28;20024;-66
2021/12/08 03:02:22;;;;;;;28.38;14.18;;;-0.80;91.70;;;;;;5060242;28;20032;-66
2021/12/08 03:04:48;;;;;;;23.88;13.18;;;-0.90;91.30;;;;;;5062517;28;20032;-66
2021/12/08 03:07:13;;;;;;;25.30;13.32;;;-1.00;90.50;;;;;;5060413;28;20040;-66
2021/12/08 03:09:39;;;;;;;20.63;10.88;;;-1.00;90.70;;;;;;5062780;28;20047;-66
2021/12/08 03:12:06;;;;;;;19.10;10.65;;;-1.10;90.80;;;;;;5065799;28;21243;-66
2021/12/08 03:14:31;;;;;;;19.23;10.18;;;-1.10;91.00;;;;;;5061691;28;20032;-66
2021/12/08 03:17:02;;;;;;;23.00;11.65;;;-1.20;91.00;;;;;;5061199;28;20054;-66
2021/12/08 03:19:29;;;;;;;23.30;12.68;;;-1.30;90.80;;;;;;5060867;28;20035;-66
2021/12/08 03:21:56;;;;;;;20.58;12.00;;;-1.30;91.00;;;;;;5059239;28;20028;-65
2021/12/08 03:24:27;;;;;;;19.63;10.82;;;-1.30;91.30;;;;;;5062088;28;20025;-66
2021/12/08 03:29:33;;;;;;;21.63;11.32;;;-1.30;91.20;;;;;;5065712;28;20046;-66
2021/12/08 03:32:13;;;;;;;23.80;13.50;;;-1.30;91.10;;;;;;5061982;28;20044;-66
2021/12/08 03:34:49;;;;;;;29.70;15.85;;;-1.30;91.40;;;;;;5063716;28;20040;-66
2021/12/08 03:37:15;;;;;;;18.80;10.07;;;-1.30;91.80;;;;;;5061343;28;20116;-66
2021/12/08 03:39:42;;;;;;;17.25;9.20;;;-1.30;91.20;;;;;;5060378;28;20108;-65
2021/12/08 03:42:08;;;;;;;17.50;9.52;;;-1.40;91.00;;;;;;5044444;28;20053;-66
2021/12/08 03:44:35;;;;;;;17.75;8.98;;;-1.40;90.50;;;;;;5058748;28;20536;-66
2021/12/08 03:47:12;;;;;;;14.00;8.52;;;-1.50;90.30;;;;;;5063846;28;20029;-66
2021/12/08 03:49:38;;;;;;;17.40;10.02;;;-1.60;90.20;;;;;;5060857;28;20538;-65
2021/12/08 03:52:04;;;;;;;16.73;9.35;;;-1.70;90.50;;;;;;5057376;28;20051;-66
2021/12/08 03:54:30;;;;;;;21.98;12.52;;;-1.70;90.80;;;;;;5062503;28;20033;-66
2021/12/08 03:56:56;;;;;;;26.27;16.70;;;-1.70;90.70;;;;;;5059235;28;20432;-66
2021/12/08 03:59:22;;;;;;;20.85;13.30;;;-1.80;91.10;;;;;;5059684;28;20106;-66
2021/12/08 04:01:47;;;;;;;23.02;12.73;;;-1.80;90.90;;;;;;5058139;28;20037;-66
2021/12/08 04:04:14;;;;;;;23.55;11.95;;;-1.80;91.10;;;;;;5057900;28;20029;-66
2021/12/08 04:06:51;;;;;;;21.65;12.32;;;-1.80;91.20;;;;;;5060238;28;20035;-66
2021/12/08 04:09:27;;;;;;;14.52;8.88;;;-1.70;91.40;;;;;;5057283;28;20387;-66
2021/12/08 04:11:54;;;;;;;16.23;10.52;;;-1.70;91.10;;;;;;5061279;28;20735;-65
2021/12/08 04:14:22;;;;;;;18.38;11.30;;;-1.80;90.70;;;;;;5057199;28;20043;-66
2021/12/08 04:16:54;;;;;;;18.10;10.63;;;-1.80;91.00;;;;;;5057265;28;20499;-66
2021/12/08 04:19:21;;;;;;;18.50;9.70;;;-1.80;91.10;;;;;;5061606;28;20090;-66
2021/12/08 04:21:48;;;;;;;14.98;8.63;;;-1.80;91.20;;;;;;5054682;28;20025;-63
2021/12/08 04:24:15;;;;;;;21.00;11.10;;;-1.90;91.20;;;;;;5057708;28;20020;-64
2021/12/08 04:26:50;;;;;;;22.95;11.85;;;-1.90;91.20;;;;;;5058916;28;20032;-65
2021/12/08 04:29:18;;;;;;;21.95;12.27;;;-1.90;91.10;;;;;;5055129;28;20021;-65
2021/12/08 04:31:45;;;;;;;22.27;13.57;;;-1.80;91.20;;;;;;5064081;28;20032;-65
2021/12/08 04:34:18;;;;;;;15.20;8.95;;;-1.80;91.30;;;;;;5060750;28;20024;-64
2021/12/08 04:36:50;;;;;;;14.13;7.97;;;-1.90;91.20;;;;;;5059095;28;20097;-65
2021/12/08 04:39:21;;;;;;;;;;;-1.90;90.80;;;;;;5058260;28;20131;-65
2021/12/08 04:41:52;;;;;;;11.82;6.00;;;-1.90;90.50;;;;;;5059821;28;20042;-65
2021/12/08 04:44:35;;;;;;;10.10;6.80;;;-2.00;90.40;;;;;;5059933;28;20037;-65
2021/12/08 05:09:35;;;;;;;16.25;8.02;;;-2.10;90.70;;;;;;5059317;28;20044;-65
2021/12/08 05:12:07;;;;;;;12.70;7.18;;;-2.20;90.90;;;;;;5060384;28;20066;-66
2021/12/08 05:14:39;;;;;;;12.52;6.38;;;-2.10;90.70;;;;;;5064609;28;20747;-66
2021/12/08 05:17:17;;;;;;;9.65;5.95;;;-2.20;90.30;;;;;;5066179;28;20110;-66
2021/12/08 05:19:47;;;;;;;13.27;7.20;;;-2.30;90.50;;;;;;5061957;28;20486;-66
2021/12/08 05:22:22;;;;;;;12.90;7.30;;;-2.30;90.80;;;;;;5065350;28;20029;-65
2021/12/08 05:24:51;;;;;;;15.20;8.55;;;-2.30;90.90;;;;;;5064205;28;20020;-66
2021/12/08 05:27:25;;;;;;;17.15;9.13;;;-2.30;90.90;;;;;;5062832;28;20087;-66
2021/12/08 05:30:06;;;;;;;41.85;18.58;;;-2.20;91.10;;;;;;5064446;28;20021;-66
2021/12/08 05:32:32;;;;;;;34.13;19.05;;;-2.20;91.40;;;;;;5066962;28;20043;-66
2021/12/08 05:34:58;;;;;;;13.50;7.30;;;-2.10;91.70;;;;;;5061424;28;20386;-66
2021/12/08 05:37:25;;;;;;;9.85;5.57;;;-2.10;90.90;;;;;;5062020;28;20040;-66
2021/12/08 05:39:53;;;;;;;11.52;5.65;;;-2.50;90.00;;;;;;5057722;28;20060;-65
2021/12/08 05:42:23;;;;;;;11.43;6.10;;;-2.70;90.40;;;;;;5062853;28;20040;-65
2021/12/08 05:44:49;;;;;;;9.80;6.10;;;-2.70;90.90;;;;;;5062317;28;20044;-66
2021/12/08 05:47:21;;;;;;;12.38;6.55;;;-2.70;91.00;;;;;;5057901;28;20036;-66
2021/12/08 05:49:48;;;;;;;14.48;7.47;;;-2.70;91.00;;;;;;5059311;28;20085;-65
2021/12/08 05:52:14;;;;;;;15.63;8.68;;;-2.70;91.20;;;;;;5064032;28;20036;-65
2021/12/08 05:54:42;;;;;;;21.83;12.55;;;-2.60;91.30;;;;;;5062392;28;20170;-65
2021/12/08 05:57:14;;;;;;;26.15;15.52;;;-2.50;91.30;;;;;;5061817;28;20032;-65
2021/12/08 05:59:40;;;;;;;24.10;12.90;;;-2.50;91.30;;;;;;5057752;28;20521;-65
2021/12/08 06:02:20;;;;;;;19.95;11.43;;;-2.50;91.40;;;;;;5062194;28;20570;-65
2021/12/08 06:04:46;;;;;;;34.53;17.98;;;-2.40;91.30;;;;;;5064712;28;20117;-66
2021/12/08 06:07:21;;;;;;;14.85;7.80;;;-2.40;91.60;;;;;;5062645;28;20033;-65
2021/12/08 06:09:48;;;;;;;18.50;9.93;;;-2.40;91.30;;;;;;5062538;28;20527;-65
2021/12/08 06:12:13;;;;;;;27.38;14.98;;;-2.30;91.10;;;;;;5061437;28;20036;-65
2021/12/08 06:14:39;;;;;;;14.75;9.15;;;-2.40;91.00;;;;;;5062129;28;20030;-65
2021/12/08 06:17:13;;;;;;;12.05;6.05;;;-2.40;91.10;;;;;;5058411;28;20031;-65
2021/12/08 06:19:41;;;;;;;11.20;6.10;;;-2.40;91.00;;;;;;5056764;28;20020;-65
2021/12/08 06:22:10;;;;;;;11.63;6.45;;;-2.40;90.80;;;;;;5060450;28;20530;-64
2021/12/08 06:24:36;;;;;;;10.98;6.07;;;-2.40;90.60;;;;;;5060469;28;20042;-65
2021/12/08 06:27:06;;;;;;;11.88;6.15;;;-2.40;90.40;;;;;;5063451;28;20025;-65
2021/12/08 06:29:32;;;;;;;11.20;5.20;;;-2.50;90.20;;;;;;5054483;28;20441;-65
2021/12/08 06:32:00;;;;;;;14.45;6.78;;;-2.50;90.20;;;;;;5059774;28;20066;-65
2021/12/08 06:34:26;;;;;;;12.45;6.63;;;-2.50;90.50;;;;;;5057638;28;20040;-65
2021/12/08 06:37:13;;;;;;;12.75;8.48;;;-2.60;90.40;;;;;;5061147;28;20043;-65
2021/12/08 06:39:52;;;;;;;11.60;5.13;;;-2.70;90.60;;;;;;5064233;28;20066;-65
2021/12/08 06:42:28;;;;;;;10.25;5.13;;;-2.70;90.90;;;;;;5063438;28;20028;-65
2021/12/08 06:44:54;;;;;;;8.73;5.30;;;-2.60;90.50;;;;;;5061776;28;20033;-65
2021/12/08 06:47:25;;;;;;;7.70;4.47;;;-2.70;90.50;;;;;;5061780;28;20024;-65
2021/12/08 06:49:53;;;;;;;11.63;7.03;;;-2.70;90.50;;;;;;5060302;28;20032;-65
2021/12/08 06:52:38;;;;;;;13.32;7.60;;;-2.70;90.70;;;;;;5056750;28;20021;-65
2021/12/08 06:55:09;;;;;;;11.50;5.30;;;-2.70;91.00;;;;;;5063003;28;20028;-65
2021/12/08 06:57:40;;;;;;;8.38;4.93;;;-2.60;91.10;;;;;;5057897;28;20027;-65
2021/12/08 07:00:23;;;;;;;9.60;4.97;;;-2.70;90.90;;;;;;5059804;28;20500;-65
2021/12/08 07:03:30;;;;;;;7.38;4.45;;;-2.70;90.90;;;;;;5062341;28;20752;-65
2021/12/08 07:06:09;;;;;;;9.45;4.93;;;-2.70;90.90;;;;;;5059414;28;20040;-65
2021/12/08 07:08:41;;;;;;;8.10;3.92;;;-2.70;91.00;;;;;;5061026;28;20090;-64
2021/12/08 07:11:07;;;;;;;8.52;4.93;;;-2.60;91.30;;;;;;5058213;28;20383;-65
2021/12/08 07:13:34;;;;;;;10.10;5.38;;;-2.60;91.50;;;;;;5061507;28;20028;-65
2021/12/08 07:16:10;;;;;;;9.50;5.50;;;-2.60;91.70;;;;;;5058913;28;20415;-65
2021/12/08 07:18:52;;;;;;;10.43;5.93;;;-2.60;91.80;;;;;;5061018;28;20056;-65
2021/12/08 07:21:22;;;;;;;12.02;6.38;;;-2.50;91.90;;;;;;5062237;28;20020;-65
2021/12/08 07:23:54;;;;;;;12.00;6.38;;;-2.40;91.80;;;;;;5063644;28;20032;-65
2021/12/08 07:26:24;;;;;;;12.48;7.97;;;-2.40;92.00;;;;;;5059831;28;20039;-65
2021/12/08 07:28:52;;;;;;;15.38;8.55;;;-2.30;92.00;;;;;;5057261;28;20013;-65
2021/12/08 07:31:30;;;;;;;17.63;9.63;;;-2.20;92.10;;;;;;5059961;28;20047;-65
2021/12/08 07:34:03;;;;;;;18.25;8.80;;;-2.10;92.10;;;;;;5057936;28;20067;-65
2021/12/08 07:36:30;;;;;;;19.10;10.45;;;-1.90;92.20;;;;;;5062633;28;20046;-65
2021/12/08 07:38:59;;;;;;;34.70;16.92;;;-1.80;92.20;;;;;;5057481;28;20056;-65
2021/12/08 07:41:32;;;;;;;44.35;21.83;;;-1.70;92.10;;;;;;5060350;28;20056;-65
2021/12/08 07:44:05;;;;;;;50.25;25.05;;;-1.60;92.30;;;;;;5059242;28;20712;-65
2021/12/08 07:46:38;;;;;;;52.67;25.10;;;-1.50;92.90;;;;;;5054529;28;20102;-64
2021/12/08 07:49:16;;;;;;;47.80;24.05;;;-1.30;92.70;;;;;;5055623;28;20067;-64
2021/12/08 07:51:54;;;;;;;39.03;19.50;;;-1.10;92.70;;;;;;5054682;28;20493;-65
2021/12/08 07:54:22;;;;;;;38.50;20.10;;;-1.00;92.90;;;;;;5063123;28;20067;-64
2021/12/08 07:56:52;;;;;;;39.42;19.30;;;-0.90;92.80;;;;;;5058079;28;21249;-65
2021/12/08 07:59:19;;;;;;;35.35;18.95;;;-0.80;93.00;;;;;;5056603;28;20051;-64
2021/12/08 08:01:49;;;;;;;33.85;17.25;;;-0.70;92.80;;;;;;5058108;28;20025;-64
2021/12/08 08:04:20;;;;;;;33.85;17.63;;;-0.60;93.10;;;;;;5053456;28;20024;-63
2021/12/08 08:06:50;;;;;;;32.10;16.45;;;-0.60;93.20;;;;;;5055847;28;20059;-65
2021/12/08 08:09:21;;;;;;;27.73;15.40;;;-0.50;93.20;;;;;;5056176;28;20029;-65
2021/12/08 08:11:55;;;;;;;30.60;16.40;;;-0.40;93.30;;;;;;5059579;28;20032;-65
2021/12/08 08:14:24;;;;;;;31.77;16.80;;;-0.30;93.40;;;;;;5060399;28;20115;-65
2021/12/08 08:16:55;;;;;;;30.85;16.55;;;-0.20;93.60;;;;;;5061168;28;20120;-65
2021/12/08 08:19:26;;;;;;;31.20;16.55;;;-0.30;93.60;;;;;;5059222;28;20070;-65
2021/12/08 08:21:55;;;;;;;28.58;15.77;;;-0.20;93.90;;;;;;5057148;28;20574;-65
2021/12/08 08:24:21;;;;;;;47.97;26.27;;;-0.10;93.90;;;;;;5060028;28;20051;-65
2021/12/08 08:26:51;;;;;;;49.22;35.97;;;-0.10;94.00;;;;;;5057420;28;20040;-65
2021/12/08 08:29:18;;;;;;;26.67;16.23;;;-0.10;94.20;;;;;;5057746;28;20093;-64
2021/12/08 08:31:56;;;;;;;29.98;16.08;;;0.00;94.50;;;;;;5060291;28;20155;-64
2021/12/08 08:34:27;;;;;;;37.05;20.52;;;0.00;94.70;;;;;;5054065;28;20036;-65
2021/12/08 08:36:54;;;;;;;42.03;17.40;;;0.00;94.80;;;;;;5056941;28;20039;-65
2021/12/08 08:39:32;;;;;;;29.92;17.63;;;0.00;94.80;;;;;;5057893;28;20032;-64
2021/12/08 08:42:08;;;;;;;24.85;14.38;;;0.00;94.70;;;;;;5059303;28;20044;-65
2021/12/08 08:44:54;;;;;;;23.63;13.10;;;0.00;95.00;;;;;;5056828;28;20021;-65
2021/12/08 08:47:30;;;;;;;31.27;15.63;;;0.00;95.40;;;;;;5054289;28;20960;-65
2021/12/08 08:49:57;;;;;;;25.77;13.98;;;0.00;95.30;;;;;;5056230;28;20062;-65
2021/12/08 08:52:28;;;;;;;24.08;14.43;;;0.00;95.40;;;;;;5062319;28;20431;-66
2021/12/08 08:55:00;;;;;;;30.98;17.67;;;0.10;95.40;;;;;;5061740;28;20028;-64
2021/12/08 08:57:33;;;;;;;;;;;0.30;95.30;;;;;;5059078;28;20394;-64
2021/12/08 09:00:30;;;;;;;30.00;14.55;;;0.30;95.30;;;;;;5059748;28;19912;-65
2021/12/08 09:03:01;;;;;;;41.10;26.55;;;0.50;95.60;;;;;;5057444;28;20063;-65
2021/12/08 09:05:37;;;;;;;26.23;13.95;;;0.50;95.50;;;;;;5058026;28;20103;-64
2021/12/08 09:08:05;;;;;;;23.92;13.35;;;0.60;95.30;;;;;;5053343;28;20757;-65
2021/12/08 09:10:39;;;;;;;28.95;18.40;;;0.60;95.50;;;;;;5055017;28;20032;-63
2021/12/08 09:13:25;;;;;;;22.67;14.10;;;0.60;95.50;;;;;;5057760;28;20032;-64
2021/12/08 09:15:55;;;;;;;22.10;12.75;;;0.60;95.60;;;;;;5059062;28;20041;-64
2021/12/08 09:18:44;;;;;;;21.20;12.23;;;0.70;95.80;;;;;;5056833;28;20025;-64
2021/12/08 09:21:22;;;;;;;21.42;13.15;;;0.70;95.80;;;;;;5056060;28;20032;-64
2021/12/08 09:24:02;;;;;;;19.70;13.18;;;0.80;95.80;;;;;;5057822;28;20040;-64
2021/12/08 09:26:31;;;;;;;22.58;14.45;;;0.90;96.00;;;;;;5056084;28;20025;-64
2021/12/08 09:29:07;;;;;;;24.60;14.95;;;1.00;96.10;;;;;;5054589;28;20090;-64
2021/12/08 09:31:41;;;;;;;27.77;16.40;;;1.10;96.20;;;;;;5053089;28;20085;-64
2021/12/08 09:34:22;;;;;;;27.83;16.52;;;1.20;96.30;;;;;;5057114;28;20044;-63
2021/12/08 09:37:16;;;;;;;26.60;16.48;;;1.30;96.30;;;;;;5059101;28;20111;-64
2021/12/08 09:40:05;;;;;;;27.33;16.73;;;1.30;96.30;;;;;;5051931;28;20028;-64
2021/12/08 09:42:36;;;;;;;27.92;17.23;;;1.40;96.30;;;;;;5052999;28;20115;-64
2021/12/08 09:45:08;;;;;;;;;;;1.50;96.30;;;;;;5056574;28;20043;-64
2021/12/08 09:47:34;;;;;;;26.50;15.83;;;1.50;96.40;;;;;;5053255;28;19924;-64
2021/12/08 09:50:03;;;;;;;25.52;16.42;;;1.60;96.40;;;;;;5038056;28;20582;-63
2021/12/08 09:52:30;;;;;;;26.55;15.65;;;1.60;96.50;;;;;;5050423;28;20068;-64
2021/12/08 09:55:00;;;;;;;26.27;15.73;;;1.70;96.50;;;;;;5029172;28;20052;-65
2021/12/08 09:57:28;;;;;;;29.58;17.95;;;1.70;96.50;;;;;;5034543;28;20534;-65
2021/12/08 09:59:54;;;;;;;29.88;17.77;;;1.80;96.40;;;;;;5038749;28;20037;-64
2021/12/08 10:02:30;;;;;;;29.23;16.50;;;1.90;96.10;;;;;;5038469;28;20033;-65
2021/12/08 10:04:58;;;;;;;29.27;17.20;;;1.90;96.00;;;;;;5026511;28;21000;-64
2021/12/08 10:07:25;;;;;;;28.30;17.25;;;1.90;96.10;;;;;;5019054;28;20025;-65
2021/12/08 10:09:51;;;;;;;39.58;25.50;;;2.00;96.10;;;;;;5019955;28;20030;-64
2021/12/08 10:12:17;;;;;;;33.95;22.55;;;2.10;96.10;;;;;;5019847;28;20044;-64
2021/12/08 10:14:46;;;;;;;43.22;31.35;;;2.10;96.20;;;;;;5020304;28;20041;-65
2021/12/08 10:17:13;;;;;;;44.53;25.95;;;2.10;96.30;;;;;;5016143;28;20041;-64
2021/12/08 10:19:40;;;;;;;52.17;32.22;;;2.10;96.30;;;;;;5013066;28;20041;-64
2021/12/08 10:22:20;;;;;;;48.08;30.10;;;2.20;96.30;;;;;;5017940;28;20464;-65
2021/12/08 10:25:10;;;;;;;37.22;22.98;;;2.20;96.40;;;;;;5017967;28;20088;-65
2021/12/08 10:28:03;;;;;;;79.68;45.85;;;2.30;96.50;;;;;;5018101;28;20037;-65
2021/12/08 10:30:30;;;;;;;35.30;22.80;;;2.30;96.40;;;;;;5014772;28;20026;-65
2021/12/08 10:32:56;;;;;;;30.73;19.60;;;2.20;96.60;;;;;;5014784;28;20046;-65
2021/12/08 10:35:59;;;;;;;28.08;17.95;;;2.20;96.70;;;;;;5020915;28;20034;-65
2021/12/08 10:38:37;;;;;;;28.40;18.42;;;2.30;96.90;;;;;;5015040;28;20049;-65
2021/12/08 10:41:06;;;;;;;27.10;17.58;;;2.30;96.70;;;;;;5021120;28;20124;-64
2021/12/08 10:43:33;;;;;;;26.35;16.52;;;2.30;96.80;;;;;;5020239;28;20108;-64
2021/12/08 10:46:10;;;;;;;25.75;16.67;;;2.40;96.90;;;;;;5017575;28;20814;-64
2021/12/08 10:48:43;;;;;;;26.70;17.08;;;2.60;96.80;;;;;;5020935;28;20104;-65
2021/12/08 10:54:27;;;;;;;26.65;17.42;;;2.80;96.40;;;;;;5020572;28;20045;-65
2021/12/08 10:56:57;;;;;;;26.55;16.80;;;2.80;96.50;;;;;;5019465;28;20041;-65
2021/12/08 10:59:47;;;;;;;27.90;16.80;;;2.70;96.50;;;;;;5019269;28;20041;-67
2021/12/08 11:02:42;;;;;;;26.80;17.23;;;2.70;96.70;;;;;;5017944;28;20049;-64
2021/12/08 11:05:37;;;;;;;26.08;16.90;;;2.90;96.50;;;;;;5021759;28;20033;-63
2021/12/08 11:08:19;;;;;;;28.77;17.60;;;2.90;96.60;;;;;;5022305;28;20029;-64
2021/12/08 11:11:10;;;;;;;29.10;17.00;;;2.90;96.10;;;;;;5017488;28;20022;-64
2021/12/08 11:13:42;;;;;;;27.20;17.35;;;3.00;96.30;;;;;;5023724;28;20033;-65
2021/12/08 11:16:10;;;;;;;23.67;16.17;;;3.00;96.30;;;;;;5020489;28;20033;-64
2021/12/08 11:18:39;;;;;;;29.73;16.95;;;3.00;96.00;;;;;;5023822;28;20415;-65
2021/12/08 11:21:16;;;;;;;24.88;16.23;;;3.10;96.00;;;;;;5019809;28;20030;-64
2021/12/08 11:23:48;;;;;;;24.35;16.98;;;3.10;95.90;;;;;;5020431;28;20039;-64
2021/12/08 11:26:25;;;;;;;27.27;16.80;;;3.10;96.00;;;;;;5018051;28;20567;-64
2021/12/08 11:29:07;;;;;;;26.00;16.95;;;3.20;96.00;;;;;;5022484;28;20025;-64
2021/12/08 11:31:37;;;;;;;24.85;16.48;;;3.20;95.90;;;;;;5020179;28;20511;-64
2021/12/08 11:34:06;;;;;;;25.65;16.23;;;3.30;95.90;;;;;;5018928;28;20052;-64
2021/12/08 11:36:39;;;;;;;27.83;18.40;;;3.40;95.70;;;;;;5023525;28;20477;-64
2021/12/08 11:39:16;;;;;;;27.67;16.50;;;3.50;95.60;;;;;;5021143;28;20040;-64
2021/12/08 11:41:59;;;;;;;25.90;16.85;;;3.50;95.60;;;;;;5018599;28;20048;-64
2021/12/08 11:44:30;;;;;;;29.75;18.17;;;3.50;95.70;;;;;;5019273;28;20492;-64
2021/12/08 11:47:00;;;;;;;26.98;16.60;;;3.60;95.70;;;;;;5020984;28;20026;-64
2021/12/08 11:49:26;;;;;;;25.05;16.42;;;3.60;95.60;;;;;;5023868;28;20041;-65
2021/12/08 11:52:10;;;;;;;26.42;16.67;;;3.60;95.50;;;;;;5021792;28;20033;-64
2021/12/08 11:54:41;;;;;;;23.08;16.10;;;3.70;95.30;;;;;;5021931;28;20037;-64
2021/12/08 11:57:12;;;;;;;27.63;17.27;;;3.80;95.10;;;;;;5020067;28;20739;-64
2021/12/08 11:59:54;;;;;;;24.55;16.75;;;3.90;94.90;;;;;;5021767;28;20037;-66
2021/12/08 12:02:26;;;;;;;34.40;21.85;;;3.90;94.70;;;;;;5023470;28;20061;-65
2021/12/08 12:04:52;;;;;;;26.65;16.63;;;4.10;96.00;;;;;;5024218;28;20486;-65
2021/12/08 12:07:18;;;;;;;23.30;15.82;;;4.20;98.30;;;;;;5023599;28;20041;-65
2021/12/08 12:09:45;;;;;;;22.55;14.15;;;4.10;92.80;;;;;;5017134;28;20056;-65
2021/12/08 12:12:12;;;;;;;23.95;15.85;;;4.10;93.10;;;;;;5026756;28;20056;-65
2021/12/08 12:14:41;;;;;;;26.52;15.57;;;4.20;93.20;;;;;;5022183;28;20579;-65
2021/12/08 12:17:07;;;;;;;24.30;16.63;;;4.30;93.10;;;;;;5022651;28;20559;-65
2021/12/08 12:19:41;;;;;;;28.73;18.10;;;4.20;93.20;;;;;;5020762;28;20040;-65
2021/12/08 12:22:23;;;;;;;27.55;17.02;;;4.30;93.40;;;;;;5020015;28;20045;-65
2021/12/08 12:25:33;;;;;;;35.45;19.33;;;4.40;93.30;;;;;;5019207;28;20034;-65
2021/12/08 12:28:08;;;;;;;31.20;19.27;;;4.50;93.00;;;;;;4977893;28;20042;-65
2021/12/08 12:30:42;;;;;;;34.85;20.27;;;4.50;93.00;;;;;;5017940;28;20037;-65
2021/12/08 12:33:23;;;;;;;29.58;18.58;;;4.50;92.90;;;;;;5016730;28;20074;-65
2021/12/08 12:35:52;;;;;;;29.55;18.35;;;4.40;92.90;;;;;;5019191;28;20060;-64
2021/12/08 12:38:33;;;;;;;30.17;19.73;;;4.40;93.10;;;;;;5019624;28;20037;-65
2021/12/08 12:40:58;;;;;;;35.78;24.17;;;4.50;93.00;;;;;;5021311;28;20211;-64
2021/12/08 12:43:27;;;;;;;29.00;19.88;;;4.50;93.00;;;;;;5018623;28;20539;-64
2021/12/08 12:46:13;;;;;;;31.10;20.08;;;4.50;92.80;;;;;;5019156;28;20052;-64
2021/12/08 12:48:39;;;;;;;30.33;21.08;;;4.60;92.90;;;;;;5017830;28;20021;-65
2021/12/08 12:51:11;;;;;;;28.98;19.60;;;4.70;92.90;;;;;;5016978;28;20025;-64
2021/12/08 12:53:53;;;;;;;32.85;20.05;;;4.70;92.90;;;;;;5019913;28;20031;-64
2021/12/08 12:56:27;;;;;;;;;;;4.70;92.80;;;;;;5022497;28;20040;-65
2021/12/08 12:58:55;;;;;;;28.48;18.50;;;4.70;92.70;;;;;;5018221;28;19917;-64
2021/12/08 13:01:34;;;;;;;29.02;19.70;;;4.70;92.80;;;;;;5022069;28;20033;-65
2021/12/08 13:04:06;;;;;;;30.48;20.35;;;4.70;92.80;;;;;;5017637;28;20072;-65
2021/12/08 13:06:41;;;;;;;49.45;33.97;;;4.70;92.90;;;;;;5017206;28;20072;-65
2021/12/08 13:09:28;;;;;;;38.78;26.40;;;4.80;92.70;;;;;;5015964;28;21222;-65
2021/12/08 13:12:25;;;;;;;35.60;25.40;;;4.90;92.60;;;;;;5006119;28;20050;-65
2021/12/08 13:15:08;;;;;;;39.05;26.60;;;4.90;92.50;;;;;;5018344;28;20053;-65
2021/12/08 13:17:35;;;;;;;30.75;21.35;;;5.00;92.40;;;;;;5017266;28;20025;-64
2021/12/08 13:20:05;;;;;;;30.10;19.80;;;5.10;92.10;;;;;;5020858;28;20030;-63
2021/12/08 13:22:55;;;;;;;31.85;20.23;;;5.10;92.10;;;;;;5017023;28;20043;-65
2021/12/08 13:25:46;;;;;;;28.92;18.95;;;5.30;92.20;;;;;;5021859;28;20056;-65
2021/12/08 13:28:40;;;;;;;28.55;18.30;;;5.60;91.60;;;;;;5018351;28;20029;-64
2021/12/08 13:34:04;;;;;;;;;;;6.10;90.80;;;;;;5019731;28;20042;-63
2021/12/08 13:36:47;;;;;;;27.77;18.55;;;6.40;89.90;;;;;;5022933;28;19956;-63
2021/12/08 13:39:21;;;;;;;29.67;19.52;;;6.80;89.10;;;;;;5020312;28;20045;-64
2021/12/08 13:42:04;;;;;;;24.80;17.17;;;7.20;87.30;;;;;;5019712;28;20060;-64
2021/12/08 13:44:39;;;;;;;29.92;19.13;;;7.80;85.00;;;;;;5018496;28;20041;-64
2021/12/08 13:47:09;;;;;;;23.48;16.15;;;8.30;82.80;;;;;;5023134;28;20439;-64
2021/12/08 13:49:50;;;;;;;25.10;18.52;;;8.50;80.80;;;;;;5025907;28;20029;-64